createdAt,value
2022-08-12T00:02:04.133Z,101770.09
2022-08-12T00:04:52.489Z,101766.00
2022-08-12T00:07:38.065Z,101763.25
2022-08-12T00:10:23.706Z,101771.88
2022-08-12T00:13:08.785Z,101771.78
2022-08-12T00:15:54.907Z,101772.63
2022-08-12T00:18:40.178Z,101772.47
2022-08-12T00:21:25.538Z,101775.41
2022-08-12T00:24:12.672Z,101764.19
2022-08-12T00:27:00.114Z,101765.22
2022-08-12T00:29:47.973Z,101762.81
2022-08-12T00:32:56.856Z,101768.47
2022-08-12T00:35:39.464Z,101762.28
2022-08-12T00:38:25.945Z,101763.56
2022-08-12T00:41:11.595Z,101764.69
2022-08-12T00:43:38.344Z,101767.84
2022-08-12T00:46:24.004Z,101763.84
2022-08-12T00:48:51.665Z,101769.94
2022-08-12T00:51:19.649Z,101767.47
2022-08-12T00:53:46.253Z,101765.56
2022-08-12T00:56:12.870Z,101763.38
2022-08-12T00:58:47.024Z,101759.50
2022-08-12T01:01:14.449Z,101760.94
2022-08-12T01:03:59.775Z,101755.38
2022-08-12T01:06:46.315Z,101754.72
2022-08-12T01:09:37.213Z,101762.66
2022-08-12T01:12:06.345Z,101764.53
2022-08-12T01:14:34.402Z,101761.16
2022-08-12T01:17:01.018Z,101761.75
2022-08-12T01:19:27.479Z,101757.25
2022-08-12T01:22:23.146Z,101763.53
2022-08-12T01:25:06.761Z,101758.22
2022-08-12T01:27:35.107Z,101765.97
2022-08-12T01:30:07.742Z,101769.94
2022-08-12T01:32:38.396Z,101764.38
2022-08-12T01:35:13.478Z,101758.03
2022-08-12T01:37:56.509Z,101759.19
2022-08-12T01:40:37.803Z,101758.41
2022-08-12T01:43:10.924Z,101755.66
2022-08-12T01:45:57.054Z,101759.03
2022-08-12T01:48:34.848Z,101761.16
2022-08-12T01:52:19.807Z,101759.47
2022-08-12T01:54:28.804Z,101765.78
2022-08-12T01:57:02.279Z,101765.28
2022-08-12T01:59:58.426Z,101763.63
2022-08-12T02:02:55.316Z,101766.78
2022-08-12T02:06:01.233Z,101765.69
2022-08-12T02:08:49.612Z,101762.03
2022-08-12T02:11:24.629Z,101765.78
2022-08-12T02:14:31.374Z,101758.50
2022-08-12T02:17:24.126Z,101756.59
2022-08-12T02:20:51.131Z,101752.66
2022-08-12T02:23:26.787Z,101753.00
2022-08-12T02:25:58.033Z,101747.91
2022-08-12T02:28:24.876Z,101752.19
2022-08-12T02:30:51.366Z,101747.66
2022-08-12T02:33:19.706Z,101759.28
2022-08-12T02:38:28.654Z,101756.56
2022-08-12T02:40:57.456Z,101754.28
2022-08-12T02:43:40.253Z,101750.91
2022-08-12T02:46:14.475Z,101755.47
2022-08-12T02:48:52.278Z,101744.47
2022-08-12T02:51:34.000Z,101756.44
2022-08-12T02:54:05.347Z,101747.13
2022-08-12T02:56:34.188Z,101753.31
2022-08-12T02:59:01.784Z,101756.72
2022-08-12T03:01:35.613Z,101753.09
2022-08-12T03:04:20.250Z,101751.44
2022-08-12T03:07:09.492Z,101751.44
2022-08-12T03:10:04.814Z,101747.00
2022-08-12T03:12:42.817Z,101754.34
2022-08-12T03:15:18.126Z,101760.00
2022-08-12T03:18:25.879Z,101756.34
2022-08-12T03:20:56.626Z,101754.13
2022-08-12T03:23:29.795Z,101754.16
2022-08-12T03:26:00.508Z,101762.94
2022-08-12T03:28:47.677Z,101760.97
2022-08-12T03:31:14.187Z,101763.53
2022-08-12T03:34:00.773Z,101767.81
2022-08-12T03:36:31.911Z,101766.97
2022-08-12T03:39:35.549Z,101763.34
2022-08-12T03:42:24.167Z,101768.53
2022-08-12T03:45:26.407Z,101769.97
2022-08-12T03:48:18.822Z,101768.81
2022-08-12T03:51:05.939Z,101770.53
2022-08-12T03:53:51.737Z,101768.31
2022-08-12T03:56:37.046Z,101771.66
2022-08-12T03:59:24.370Z,101773.66
2022-08-12T04:01:57.661Z,101771.47
2022-08-12T04:04:32.963Z,101774.03
2022-08-12T04:07:09.861Z,101770.38
2022-08-12T04:09:43.048Z,101770.94
2022-08-12T04:12:29.946Z,101769.81
2022-08-12T04:15:00.375Z,101775.19
2022-08-12T04:17:27.983Z,101780.22
2022-08-12T04:19:56.644Z,101773.75
2022-08-12T04:22:29.407Z,101777.09
2022-08-12T04:25:01.477Z,101770.34
2022-08-12T04:27:31.517Z,101775.41
2022-08-12T04:30:16.370Z,101775.06
2022-08-12T04:32:48.180Z,101775.59
2022-08-12T04:35:15.092Z,101773.94
2022-08-12T04:37:58.402Z,101785.78
2022-08-12T04:40:29.011Z,101782.72
2022-08-12T04:42:55.959Z,101780.94
2022-08-12T04:45:22.823Z,101782.28
2022-08-12T04:47:49.607Z,101782.56
2022-08-12T04:50:34.607Z,101785.31
2022-08-12T04:53:08.245Z,101772.00
2022-08-12T04:55:38.812Z,101775.28
2022-08-12T04:58:06.731Z,101783.09
2022-08-12T05:00:33.882Z,101781.00
2022-08-12T05:03:00.437Z,101784.84
2022-08-12T05:05:30.347Z,101785.00
2022-08-12T05:07:59.080Z,101777.28
2022-08-12T05:10:34.000Z,101780.22
2022-08-12T05:13:08.117Z,101771.84
2022-08-12T05:16:03.924Z,101772.16
2022-08-12T05:18:25.294Z,101778.75
2022-08-12T05:20:55.713Z,101772.84
2022-08-12T05:23:22.523Z,101783.28
2022-08-12T05:25:51.336Z,101789.75
2022-08-12T05:28:18.222Z,101793.16
2022-08-12T05:30:45.880Z,101787.22
2022-08-12T05:33:13.582Z,101785.06
2022-08-12T05:35:43.528Z,101788.13
2022-08-12T05:38:41.034Z,101792.25
2022-08-12T05:41:19.016Z,101791.00
2022-08-12T05:44:00.684Z,101793.44
2022-08-12T05:46:29.030Z,101788.47
2022-08-12T05:48:56.358Z,101793.91
2022-08-12T05:51:39.571Z,101794.13
2022-08-12T05:54:08.819Z,101797.81
2022-08-12T05:56:36.068Z,101793.22
2022-08-12T05:59:07.522Z,101803.13
2022-08-12T06:02:12.302Z,101801.63
2022-08-12T06:04:21.450Z,101797.13
2022-08-12T06:06:51.389Z,101812.06
2022-08-12T06:09:17.808Z,101816.09
2022-08-12T06:12:05.926Z,101810.84
2022-08-12T06:14:36.713Z,101809.00
2022-08-12T06:17:04.422Z,101811.09
2022-08-12T06:20:26.593Z,101813.66
2022-08-12T06:22:18.037Z,101805.38
2022-08-12T06:24:44.505Z,101810.41
2022-08-12T06:27:11.549Z,101813.19
2022-08-12T06:30:08.848Z,101805.06
2022-08-12T06:32:27.464Z,101812.06
2022-08-12T06:35:23.400Z,101812.47
2022-08-12T06:37:45.805Z,101808.66
2022-08-12T06:40:42.205Z,101808.31
2022-08-12T06:43:08.738Z,101811.72
2022-08-12T06:45:45.231Z,101806.66
2022-08-12T06:48:12.333Z,101805.91
2022-08-12T06:50:40.204Z,101811.38
2022-08-12T06:53:06.850Z,101809.97
2022-08-12T06:55:33.299Z,101808.72
2022-08-12T06:58:07.396Z,101812.09
2022-08-12T07:00:36.966Z,101808.97
2022-08-12T07:03:22.702Z,101801.53
2022-08-12T07:05:50.854Z,101810.09
2022-08-12T07:08:18.171Z,101802.75
2022-08-12T07:10:50.789Z,101795.63
2022-08-12T07:13:17.252Z,101804.22
2022-08-12T07:15:43.868Z,101803.06
2022-08-12T07:18:11.982Z,101808.94
2022-08-12T07:20:51.831Z,101807.44
2022-08-12T07:23:19.459Z,101808.38
2022-08-12T07:25:45.958Z,101808.22
2022-08-12T07:28:24.498Z,101797.50
2022-08-12T07:30:53.366Z,101810.75
2022-08-12T07:33:23.020Z,101805.16
2022-08-12T07:35:53.876Z,101800.47
2022-08-12T07:38:29.113Z,101804.22
2022-08-12T07:41:15.818Z,101807.81
2022-08-12T07:43:51.459Z,101809.34
2022-08-12T07:46:22.548Z,101808.66
2022-08-12T07:48:51.896Z,101800.84
2022-08-12T07:51:25.274Z,101797.41
2022-08-12T07:54:00.537Z,101798.56
2022-08-12T07:56:31.130Z,101799.34
2022-08-12T07:58:59.198Z,101798.06
2022-08-12T08:01:26.383Z,101798.06
2022-08-12T08:04:17.992Z,101805.06
2022-08-12T08:06:45.934Z,101800.28
2022-08-12T08:09:14.866Z,101803.19
2022-08-12T08:12:00.382Z,101798.34
2022-08-12T08:14:31.733Z,101799.09
2022-08-12T08:16:59.708Z,101805.56
2022-08-12T08:19:29.019Z,101799.81
2022-08-12T08:21:57.189Z,101793.34
2022-08-12T08:24:26.904Z,101791.56
2022-08-12T08:26:58.878Z,101791.56
2022-08-12T08:29:25.721Z,101791.34
2022-08-12T08:31:59.927Z,101792.47
2022-08-12T08:34:49.136Z,101789.47
2022-08-12T08:37:17.281Z,101796.41
2022-08-12T08:39:43.976Z,101797.16
2022-08-12T08:42:36.786Z,101792.78
2022-08-12T08:45:12.831Z,101798.69
2022-08-12T08:47:49.674Z,101792.56
2022-08-12T08:50:16.245Z,101795.66
2022-08-12T08:52:47.330Z,101797.47
2022-08-12T08:55:20.842Z,101794.31
2022-08-12T08:57:53.611Z,101800.47
2022-08-12T09:00:21.704Z,101791.25
2022-08-12T09:02:59.502Z,101798.94
2022-08-12T09:05:27.696Z,101795.25
2022-08-12T09:08:09.077Z,101792.47
2022-08-12T09:10:45.188Z,101785.09
2022-08-12T09:14:12.960Z,101789.19
2022-08-12T09:16:21.285Z,101782.81
2022-08-12T09:18:52.683Z,101785.56
2022-08-12T09:21:23.240Z,101776.47
2022-08-12T09:23:57.752Z,101782.00
2022-08-12T09:26:29.165Z,101779.69
2022-08-12T09:28:56.850Z,101772.50
2022-08-12T09:32:05.838Z,101775.97
2022-08-12T09:34:28.118Z,101778.88
2022-08-12T09:37:02.562Z,101778.06
2022-08-12T09:40:03.590Z,101775.78
2022-08-12T09:43:10.955Z,101766.56
2022-08-12T09:46:06.941Z,101770.25
2022-08-12T09:48:23.202Z,101765.88
2022-08-12T09:50:51.870Z,101761.31
2022-08-12T09:53:36.335Z,101756.97
2022-08-12T09:57:00.931Z,101758.34
2022-08-12T09:59:00.369Z,101752.69
2022-08-12T10:01:35.354Z,101745.38
2022-08-12T10:04:19.289Z,101743.16
2022-08-12T10:06:53.790Z,101742.03
2022-08-12T10:09:23.117Z,101732.66
2022-08-12T10:12:14.206Z,101721.88
2022-08-12T10:14:49.802Z,101723.31
2022-08-12T10:17:18.571Z,101716.97
2022-08-12T10:19:51.627Z,101722.66
2022-08-12T10:22:37.228Z,101729.75
2022-08-12T10:26:38.185Z,101715.41
2022-08-12T10:28:30.467Z,101709.47
2022-08-12T10:30:59.315Z,101717.84
2022-08-12T10:33:31.454Z,101713.25
2022-08-12T10:35:59.747Z,101716.84
2022-08-12T10:38:38.140Z,101700.44
2022-08-12T10:41:56.550Z,101699.47
2022-08-12T10:44:16.995Z,101693.41
2022-08-12T10:46:49.063Z,101697.09
2022-08-12T10:50:03.659Z,101693.19
2022-08-12T10:52:34.725Z,101684.56
2022-08-12T10:54:53.393Z,101691.56
2022-08-12T10:58:13.017Z,101686.88
2022-08-12T11:00:30.583Z,101684.50
2022-08-12T11:04:27.682Z,101682.28
2022-08-12T11:07:10.203Z,101678.28
2022-08-12T11:08:42.319Z,101683.19
2022-08-12T11:11:13.602Z,101681.81
2022-08-12T11:13:46.586Z,101682.81
2022-08-12T11:16:22.522Z,101682.03
2022-08-12T11:18:55.423Z,101671.50
2022-08-12T11:21:56.397Z,101669.78
2022-08-12T11:24:30.712Z,101671.09
2022-08-12T11:27:07.797Z,101675.78
2022-08-12T11:30:05.763Z,101677.00
2022-08-12T11:32:29.386Z,101673.38
2022-08-12T11:35:05.936Z,101657.28
2022-08-12T11:37:59.392Z,101656.88
2022-08-12T11:40:50.504Z,101658.06
2022-08-12T11:43:50.294Z,101654.09
2022-08-12T11:46:26.639Z,101654.56
2022-08-12T11:48:53.070Z,101654.31
2022-08-12T11:51:20.780Z,101651.81
2022-08-12T11:53:58.341Z,101646.25
2022-08-12T11:56:38.567Z,101646.53
2022-08-12T12:02:04.741Z,101646.84
2022-08-12T12:04:32.141Z,101644.16
2022-08-12T12:07:07.447Z,101635.53
2022-08-12T12:09:52.373Z,101634.38
2022-08-12T12:12:22.306Z,101634.81
2022-08-12T12:14:54.223Z,101633.81
2022-08-12T12:17:21.655Z,101636.28
2022-08-12T12:19:48.619Z,101636.09
2022-08-12T12:22:15.693Z,101629.16
2022-08-12T12:24:51.036Z,101628.31
2022-08-12T12:27:39.384Z,101630.00
2022-08-12T12:30:17.688Z,101622.97
2022-08-12T12:32:53.738Z,101623.41
2022-08-12T12:36:19.968Z,101621.22
2022-08-12T12:38:12.867Z,101618.78
2022-08-12T12:40:45.704Z,101619.84
2022-08-12T12:43:16.998Z,101615.97
2022-08-12T12:46:03.452Z,101621.91
2022-08-12T12:48:29.886Z,101614.88
2022-08-12T12:51:49.370Z,101610.19
2022-08-12T12:54:07.187Z,101611.53
2022-08-12T12:56:42.299Z,101610.84
2022-08-12T12:59:33.703Z,101604.06
2022-08-12T13:01:56.140Z,101612.75
2022-08-12T13:04:24.644Z,101612.94
2022-08-12T13:07:01.249Z,101599.28
2022-08-12T13:09:28.393Z,101599.72
2022-08-12T13:12:03.031Z,101604.50
2022-08-12T13:14:31.632Z,101606.69
2022-08-12T13:17:02.936Z,101592.66
2022-08-12T13:19:43.451Z,101605.88
2022-08-12T13:22:18.552Z,101597.81
2022-08-12T13:24:54.943Z,101597.53
2022-08-12T13:27:35.516Z,101597.47
2022-08-12T13:30:06.906Z,101596.84
2022-08-12T13:32:38.063Z,101598.09
2022-08-12T13:35:19.237Z,101587.38
2022-08-12T13:37:55.121Z,101606.41
2022-08-12T13:40:40.742Z,101592.50
2022-08-12T13:43:07.510Z,101592.72
2022-08-12T13:45:35.414Z,101592.03
2022-08-12T13:48:07.174Z,101585.34
2022-08-12T13:50:38.672Z,101594.81
2022-08-12T13:53:23.986Z,101584.09
2022-08-12T13:55:59.522Z,101575.69
2022-08-12T13:58:29.102Z,101578.66
2022-08-12T14:00:58.003Z,101568.47
2022-08-12T14:03:28.025Z,101563.25
2022-08-12T14:05:59.149Z,101567.38
2022-08-12T14:08:25.898Z,101564.44
2022-08-12T14:11:02.047Z,101570.50
2022-08-12T14:14:03.854Z,101569.56
2022-08-12T14:16:37.821Z,101567.38
2022-08-12T14:19:05.135Z,101568.41
2022-08-12T14:21:59.288Z,101578.94
2022-08-12T14:24:30.818Z,101572.91
2022-08-12T14:26:57.518Z,101566.72
2022-08-12T14:29:55.699Z,101567.91
2022-08-12T14:32:39.160Z,101559.41
2022-08-12T14:35:10.938Z,101565.63
2022-08-12T14:37:57.323Z,101562.09
2022-08-12T14:40:29.495Z,101553.59
2022-08-12T14:42:58.324Z,101561.06
2022-08-12T14:45:45.582Z,101552.03
2022-08-12T14:48:13.135Z,101554.09
2022-08-12T14:51:03.182Z,101553.19
2022-08-12T14:59:23.804Z,101545.78
2022-08-12T15:02:17.111Z,101542.72
2022-08-12T15:05:03.470Z,101546.81
2022-08-12T15:07:33.167Z,101532.41
2022-08-12T15:10:10.767Z,101528.59
2022-08-12T15:12:40.527Z,101529.00
2022-08-12T15:15:08.761Z,101533.00
2022-08-12T15:17:38.543Z,101528.44
2022-08-12T15:20:31.512Z,101530.69
2022-08-12T15:22:53.866Z,101529.91
2022-08-12T15:25:20.745Z,101526.75
2022-08-12T15:28:04.457Z,101527.66
2022-08-12T15:30:34.637Z,101521.53
2022-08-12T15:33:12.239Z,101514.22
2022-08-12T15:35:50.250Z,101514.72
2022-08-12T15:38:20.719Z,101515.94
2022-08-12T15:40:49.929Z,101500.72
2022-08-12T15:43:35.479Z,101502.72
2022-08-12T15:46:06.256Z,101506.66
2022-08-12T15:48:32.914Z,101511.41
2022-08-12T15:51:01.931Z,101504.91
2022-08-12T15:53:53.163Z,101508.97
2022-08-12T15:56:29.355Z,101496.13
2022-08-12T15:58:58.861Z,101496.13
2022-08-12T16:01:35.138Z,101500.31
2022-08-12T16:04:02.990Z,101494.78
2022-08-12T16:06:50.989Z,101496.03
2022-08-12T16:09:21.507Z,101508.84
2022-08-12T16:11:48.753Z,101507.56
2022-08-12T16:14:16.219Z,101504.94
2022-08-12T16:16:42.924Z,101510.00
2022-08-12T16:20:01.862Z,101500.53
2022-08-12T16:21:58.226Z,101499.31
2022-08-12T16:24:25.413Z,101496.84
2022-08-12T16:27:03.778Z,101496.41
2022-08-12T16:29:53.813Z,101490.72
2022-08-12T16:32:31.741Z,101488.88
2022-08-12T16:34:59.819Z,101490.44
2022-08-12T16:38:04.746Z,101488.00
2022-08-12T16:40:14.328Z,101489.94
2022-08-12T16:42:53.807Z,101492.00
2022-08-12T16:46:04.351Z,101491.06
2022-08-12T16:48:34.605Z,101477.78
2022-08-12T16:51:09.487Z,101483.47
2022-08-12T16:53:44.654Z,101476.56
2022-08-12T16:56:15.162Z,101475.69
2022-08-12T16:58:42.271Z,101473.94
2022-08-12T17:01:13.978Z,101475.53
2022-08-12T17:03:58.842Z,101466.50
2022-08-12T17:06:28.127Z,101462.94
2022-08-12T17:09:02.861Z,101460.75
2022-08-12T17:11:30.972Z,101467.59
2022-08-12T17:13:59.097Z,101464.78
2022-08-12T17:16:30.143Z,101450.25
2022-08-12T17:18:59.715Z,101453.50
2022-08-12T17:21:41.373Z,101454.38
2022-08-12T17:24:21.714Z,101455.06
2022-08-12T17:26:50.022Z,101444.72
2022-08-12T17:29:24.014Z,101443.47
2022-08-12T17:32:07.296Z,101440.19
2022-08-12T17:34:54.101Z,101440.22
2022-08-12T17:37:21.260Z,101448.00
2022-08-12T17:40:07.431Z,101441.88
2022-08-12T17:42:35.546Z,101437.69
2022-08-12T17:45:18.207Z,101440.09
2022-08-12T17:48:01.748Z,101441.84
2022-08-12T17:50:36.870Z,101439.59
2022-08-12T17:53:08.115Z,101438.66
2022-08-12T17:55:44.004Z,101446.81
2022-08-12T17:58:15.007Z,101444.38
2022-08-12T18:00:46.062Z,101448.41
2022-08-12T18:04:06.936Z,101449.97
2022-08-12T18:06:14.255Z,101453.69
2022-08-12T18:08:54.567Z,101454.81
2022-08-12T18:12:05.569Z,101454.78
2022-08-12T18:14:28.954Z,101468.22
2022-08-12T18:17:00.522Z,101454.34
2022-08-12T18:20:03.530Z,101456.44
2022-08-12T18:22:17.604Z,101460.19
2022-08-12T18:25:01.471Z,101461.41
2022-08-12T18:27:43.488Z,101461.25
2022-08-12T18:30:13.196Z,101468.00
2022-08-12T18:32:59.101Z,101462.63
2022-08-12T18:35:47.791Z,101474.44
2022-08-12T18:38:17.083Z,101471.34
2022-08-12T18:41:04.140Z,101472.28
2022-08-12T18:43:57.213Z,101473.56
2022-08-12T18:46:29.237Z,101475.56
2022-08-12T18:48:57.587Z,101478.19
2022-08-12T18:51:51.892Z,101474.50
2022-08-12T18:54:23.284Z,101481.19
2022-08-12T18:56:49.968Z,101479.13
2022-08-12T19:00:01.145Z,101479.56
2022-08-12T19:02:21.840Z,101490.03
2022-08-12T19:04:49.568Z,101490.25
2022-08-12T19:07:24.870Z,101494.91
2022-08-12T19:09:59.976Z,101494.38
2022-08-12T19:12:57.244Z,101492.59
2022-08-12T19:15:25.619Z,101489.47
2022-08-12T19:18:00.502Z,101494.22
2022-08-12T19:20:32.847Z,101491.66
2022-08-12T19:23:07.192Z,101501.09
2022-08-12T19:26:00.521Z,101500.97
2022-08-12T19:28:26.078Z,101488.59
2022-08-12T19:31:17.546Z,101490.03
2022-08-12T19:34:00.912Z,101496.53
2022-08-12T19:36:32.483Z,101503.69
2022-08-12T19:39:01.774Z,101492.25
2022-08-12T19:41:42.454Z,101487.63
2022-08-12T19:44:16.766Z,101491.84
2022-08-12T19:46:52.907Z,101484.69
2022-08-12T19:49:20.476Z,101490.47
2022-08-12T19:51:51.543Z,101483.81
2022-08-12T19:54:22.994Z,101481.56
2022-08-12T19:56:57.455Z,101491.84
2022-08-12T19:59:43.258Z,101489.97
2022-08-12T20:02:22.738Z,101488.25
2022-08-12T20:06:06.055Z,101496.09
2022-08-12T20:07:57.164Z,101492.91
2022-08-12T20:10:36.408Z,101497.41
2022-08-12T20:13:18.337Z,101492.22
2022-08-12T20:15:51.092Z,101497.94
2022-08-12T20:18:53.275Z,101498.16
2022-08-12T20:21:15.928Z,101507.97
2022-08-12T20:23:59.854Z,101498.28
2022-08-12T20:26:27.666Z,101509.84
2022-08-12T20:28:54.821Z,101503.19
2022-08-12T20:31:21.285Z,101505.06
2022-08-12T20:33:50.657Z,101505.78
2022-08-12T20:36:42.837Z,101501.69
2022-08-12T20:39:34.059Z,101501.22
2022-08-12T20:42:01.781Z,101501.44
2022-08-12T20:44:30.414Z,101499.72
2022-08-12T20:47:06.309Z,101503.78
2022-08-12T20:49:44.278Z,101499.22
2022-08-12T20:52:15.230Z,101498.13
2022-08-12T20:54:50.123Z,101504.88
2022-08-12T20:57:20.872Z,101500.13
2022-08-12T20:59:50.157Z,101497.63
2022-08-12T21:02:24.490Z,101503.09
2022-08-12T21:05:16.289Z,101496.22
2022-08-12T21:07:47.690Z,101499.16
2022-08-12T21:10:18.928Z,101504.06
2022-08-12T21:12:47.939Z,101496.41
2022-08-12T21:15:18.021Z,101503.47
2022-08-12T21:18:11.069Z,101506.69
2022-08-12T21:20:55.736Z,101504.75
2022-08-12T21:23:23.014Z,101509.81
2022-08-12T21:25:51.168Z,101504.81
2022-08-12T21:28:20.429Z,101500.47
2022-08-12T21:31:11.780Z,101502.94
2022-08-12T21:33:58.624Z,101501.16
2022-08-12T21:36:22.545Z,101504.38
2022-08-12T21:38:51.169Z,101512.38
2022-08-12T21:41:20.230Z,101509.19
2022-08-12T21:43:52.427Z,101511.34
2022-08-12T21:46:35.337Z,101510.69
2022-08-12T21:49:04.763Z,101511.19
2022-08-12T21:51:49.051Z,101512.72
2022-08-12T21:54:22.592Z,101520.13
2022-08-12T21:56:50.280Z,101515.50
2022-08-12T21:59:17.887Z,101517.50
2022-08-12T22:01:48.949Z,101514.28
2022-08-12T22:04:35.376Z,101515.72
2022-08-12T22:07:02.223Z,101517.03
2022-08-12T22:09:29.854Z,101518.75
2022-08-12T22:12:39.095Z,101515.03
2022-08-12T22:15:09.278Z,101515.25
2022-08-12T22:17:49.832Z,101511.91
2022-08-12T22:20:21.798Z,101520.06
2022-08-12T22:22:57.043Z,101518.75
2022-08-12T22:25:24.239Z,101525.59
2022-08-12T22:28:11.960Z,101524.75
2022-08-12T22:30:56.952Z,101527.59
2022-08-12T22:33:23.375Z,101520.75
2022-08-12T22:35:58.764Z,101520.06
2022-08-12T22:38:29.186Z,101521.41
2022-08-12T22:41:30.020Z,101512.75
2022-08-12T22:44:15.565Z,101516.09
2022-08-12T22:47:01.104Z,101516.25
2022-08-12T22:49:36.852Z,101523.94
2022-08-12T22:52:18.489Z,101515.44
2022-08-12T22:55:02.990Z,101509.41
2022-08-12T22:57:53.992Z,101512.25
2022-08-12T23:00:23.966Z,101521.63
2022-08-12T23:02:59.382Z,101512.59
2022-08-12T23:05:57.503Z,101524.47
2022-08-12T23:08:18.122Z,101518.63
2022-08-12T23:10:48.278Z,101514.09
2022-08-12T23:13:43.999Z,101522.81
2022-08-12T23:16:28.501Z,101522.16
2022-08-12T23:19:10.939Z,101522.66
2022-08-12T23:22:06.760Z,101524.00
2022-08-12T23:24:38.656Z,101526.84
2022-08-12T23:27:23.868Z,101522.31
2022-08-12T23:30:18.675Z,101521.81
2022-08-12T23:32:46.503Z,101524.66
2022-08-12T23:35:22.619Z,101523.66
2022-08-12T23:37:53.932Z,101529.03
2022-08-12T23:40:22.112Z,101534.53
2022-08-12T23:42:49.123Z,101531.88
2022-08-12T23:45:20.569Z,101523.81
2022-08-12T23:47:59.771Z,101525.97
2022-08-12T23:50:33.960Z,101527.31
2022-08-12T23:53:05.768Z,101527.16
2022-08-12T23:55:35.798Z,101520.50
2022-08-12T23:58:21.445Z,101523.81
